sensor_id;sensor_type;location;lat;lon;timestamp;P1;durP1;ratioP1;P2;durP2;ratioP2
27644;SDS011;15054;57.152;-2.118;2022-07-06T00:01:20;3.25;;;0.60;;
27644;SDS011;15054;57.152;-2.118;2022-07-06T00:03:47;1.17;;;0.95;;
27644;SDS011;15054;57.152;-2.118;2022-07-06T00:06:20;2.35;;;0.57;;
27644;SDS011;15054;57.152;-2.118;2022-07-06T00:08:47;0.73;;;0.50;;
27644;SDS011;15054;57.152;-2.118;2022-07-06T00:11:14;0.80;;;0.40;;
27644;SDS011;15054;57.152;-2.118;2022-07-06T00:13:42;3.25;;;0.55;;
27644;SDS011;15054;57.152;-2.118;2022-07-06T00:16:09;0.60;;;0.40;;
27644;SDS011;15054;57.152;-2.118;2022-07-06T00:18:36;2.30;;;0.63;;
27644;SDS011;15054;57.152;-2.118;2022-07-06T00:21:03;2.17;;;0.40;;
27644;SDS011;15054;57.152;-2.118;2022-07-06T00:23:31;2.17;;;0.50;;
27644;SDS011;15054;57.152;-2.118;2022-07-06T00:25:58;1.35;;;0.47;;
27644;SDS011;15054;57.152;-2.118;2022-07-06T00:28:25;0.93;;;0.50;;
27644;SDS011;15054;57.152;-2.118;2022-07-06T00:30:52;1.85;;;0.40;;
27644;SDS011;15054;57.152;-2.118;2022-07-06T00:33:20;2.35;;;1.05;;
27644;SDS011;15054;57.152;-2.118;2022-07-06T00:35:48;2.10;;;0.40;;
27644;SDS011;15054;57.152;-2.118;2022-07-06T00:38:15;1.92;;;0.60;;
27644;SDS011;15054;57.152;-2.118;2022-07-06T00:40:43;5.03;;;1.13;;
27644;SDS011;15054;57.152;-2.118;2022-07-06T00:43:10;0.68;;;0.40;;
27644;SDS011;15054;57.152;-2.118;2022-07-06T00:45:38;1.67;;;0.50;;
27644;SDS011;15054;57.152;-2.118;2022-07-06T00:48:05;4.18;;;0.40;;
27644;SDS011;15054;57.152;-2.118;2022-07-06T00:50:33;1.35;;;0.60;;
27644;SDS011;15054;57.152;-2.118;2022-07-06T00:53:03;0.43;;;0.30;;
27644;SDS011;15054;57.152;-2.118;2022-07-06T00:55:32;1.90;;;0.50;;
27644;SDS011;15054;57.152;-2.118;2022-07-06T00:58:01;2.75;;;0.40;;
27644;SDS011;15054;57.152;-2.118;2022-07-06T01:00:30;3.58;;;0.40;;
27644;SDS011;15054;57.152;-2.118;2022-07-06T01:02:58;4.35;;;0.68;;
27644;SDS011;15054;57.152;-2.118;2022-07-06T01:05:26;4.13;;;0.43;;
27644;SDS011;15054;57.152;-2.118;2022-07-06T01:07:53;0.85;;;0.38;;
27644;SDS011;15054;57.152;-2.118;2022-07-06T01:10:21;1.27;;;0.50;;
27644;SDS011;15054;57.152;-2.118;2022-07-06T01:12:49;1.73;;;0.40;;
27644;SDS011;15054;57.152;-2.118;2022-07-06T01:15:19;1.20;;;0.30;;
27644;SDS011;15054;57.152;-2.118;2022-07-06T01:17:50;1.23;;;0.32;;
27644;SDS011;15054;57.152;-2.118;2022-07-06T01:20:23;1.10;;;0.30;;
27644;SDS011;15054;57.152;-2.118;2022-07-06T01:22:52;1.15;;;0.68;;
27644;SDS011;15054;57.152;-2.118;2022-07-06T01:25:22;1.90;;;0.50;;
27644;SDS011;15054;57.152;-2.118;2022-07-06T01:27:49;0.68;;;0.50;;
27644;SDS011;15054;57.152;-2.118;2022-07-06T01:30:17;2.92;;;0.70;;
27644;SDS011;15054;57.152;-2.118;2022-07-06T01:32:45;1.35;;;0.40;;
27644;SDS011;15054;57.152;-2.118;2022-07-06T01:35:14;0.65;;;0.50;;
27644;SDS011;15054;57.152;-2.118;2022-07-06T01:37:42;3.03;;;0.50;;
27644;SDS011;15054;57.152;-2.118;2022-07-06T01:40:10;1.50;;;0.60;;
27644;SDS011;15054;57.152;-2.118;2022-07-06T01:42:38;2.47;;;0.43;;
27644;SDS011;15054;57.152;-2.118;2022-07-06T01:45:06;1.55;;;0.70;;
27644;SDS011;15054;57.152;-2.118;2022-07-06T01:47:35;2.03;;;0.50;;
27644;SDS011;15054;57.152;-2.118;2022-07-06T01:50:05;2.75;;;0.60;;
27644;SDS011;15054;57.152;-2.118;2022-07-06T01:52:37;1.10;;;0.40;;
27644;SDS011;15054;57.152;-2.118;2022-07-06T01:55:04;0.85;;;0.40;;
27644;SDS011;15054;57.152;-2.118;2022-07-06T01:57:34;1.38;;;0.50;;
27644;SDS011;15054;57.152;-2.118;2022-07-06T02:00:01;1.65;;;0.57;;
27644;SDS011;15054;57.152;-2.118;2022-07-06T02:02:37;2.08;;;0.50;;
27644;SDS011;15054;57.152;-2.118;2022-07-06T02:05:07;0.63;;;0.30;;
27644;SDS011;15054;57.152;-2.118;2022-07-06T02:07:35;1.88;;;0.70;;
27644;SDS011;15054;57.152;-2.118;2022-07-06T02:10:03;3.72;;;0.73;;
27644;SDS011;15054;57.152;-2.118;2022-07-06T02:12:30;7.32;;;0.60;;
27644;SDS011;15054;57.152;-2.118;2022-07-06T02:14:57;2.75;;;0.57;;
27644;SDS011;15054;57.152;-2.118;2022-07-06T02:17:25;2.15;;;0.63;;
27644;SDS011;15054;57.152;-2.118;2022-07-06T02:19:52;1.85;;;0.65;;
27644;SDS011;15054;57.152;-2.118;2022-07-06T02:22:38;2.55;;;0.50;;
27644;SDS011;15054;57.152;-2.118;2022-07-06T02:25:06;2.85;;;0.57;;
27644;SDS011;15054;57.152;-2.118;2022-07-06T02:27:34;0.95;;;0.50;;
27644;SDS011;15054;57.152;-2.118;2022-07-06T02:30:05;2.45;;;0.73;;
27644;SDS011;15054;57.152;-2.118;2022-07-06T02:32:34;1.30;;;0.50;;
27644;SDS011;15054;57.152;-2.118;2022-07-06T02:35:01;1.05;;;0.40;;
27644;SDS011;15054;57.152;-2.118;2022-07-06T02:37:29;2.40;;;0.73;;
27644;SDS011;15054;57.152;-2.118;2022-07-06T02:39:56;1.48;;;0.60;;
27644;SDS011;15054;57.152;-2.118;2022-07-06T02:42:25;1.70;;;0.50;;
27644;SDS011;15054;57.152;-2.118;2022-07-06T02:44:53;2.33;;;0.52;;
27644;SDS011;15054;57.152;-2.118;2022-07-06T02:47:21;1.00;;;0.60;;
27644;SDS011;15054;57.152;-2.118;2022-07-06T02:49:49;0.50;;;0.40;;
27644;SDS011;15054;57.152;-2.118;2022-07-06T02:52:16;1.20;;;0.68;;
27644;SDS011;15054;57.152;-2.118;2022-07-06T02:54:43;1.02;;;0.50;;
27644;SDS011;15054;57.152;-2.118;2022-07-06T02:57:11;2.55;;;0.75;;
27644;SDS011;15054;57.152;-2.118;2022-07-06T02:59:38;2.40;;;0.73;;
27644;SDS011;15054;57.152;-2.118;2022-07-06T03:02:06;3.90;;;0.63;;
27644;SDS011;15054;57.152;-2.118;2022-07-06T03:04:34;1.67;;;0.50;;
27644;SDS011;15054;57.152;-2.118;2022-07-06T03:07:01;1.75;;;0.50;;
27644;SDS011;15054;57.152;-2.118;2022-07-06T03:09:29;1.77;;;0.52;;
27644;SDS011;15054;57.152;-2.118;2022-07-06T03:11:57;1.08;;;0.68;;
27644;SDS011;15054;57.152;-2.118;2022-07-06T03:14:25;1.65;;;0.70;;
27644;SDS011;15054;57.152;-2.118;2022-07-06T03:16:53;1.27;;;0.50;;
27644;SDS011;15054;57.152;-2.118;2022-07-06T03:19:21;1.60;;;0.40;;
27644;SDS011;15054;57.152;-2.118;2022-07-06T03:21:48;1.48;;;0.40;;
27644;SDS011;15054;57.152;-2.118;2022-07-06T03:24:16;1.23;;;0.43;;
27644;SDS011;15054;57.152;-2.118;2022-07-06T03:26:43;2.10;;;0.40;;
27644;SDS011;15054;57.152;-2.118;2022-07-06T03:29:12;0.55;;;0.50;;
27644;SDS011;15054;57.152;-2.118;2022-07-06T03:31:39;1.23;;;0.82;;
27644;SDS011;15054;57.152;-2.118;2022-07-06T03:34:07;0.52;;;0.20;;
27644;SDS011;15054;57.152;-2.118;2022-07-06T03:36:35;0.25;;;0.25;;
27644;SDS011;15054;57.152;-2.118;2022-07-06T03:39:06;0.75;;;0.30;;
27644;SDS011;15054;57.152;-2.118;2022-07-06T03:41:35;0.10;;;0.10;;
27644;SDS011;15054;57.152;-2.118;2022-07-06T03:44:03;0.10;;;0.10;;
27644;SDS011;15054;57.152;-2.118;2022-07-06T03:46:30;0.10;;;0.10;;
27644;SDS011;15054;57.152;-2.118;2022-07-06T03:48:59;0.00;;;0.00;;
27644;SDS011;15054;57.152;-2.118;2022-07-06T03:51:29;0.10;;;0.08;;
27644;SDS011;15054;57.152;-2.118;2022-07-06T03:53:56;0.10;;;0.10;;
27644;SDS011;15054;57.152;-2.118;2022-07-06T03:56:24;0.10;;;0.10;;
27644;SDS011;15054;57.152;-2.118;2022-07-06T03:59:05;0.05;;;0.05;;
27644;SDS011;15054;57.152;-2.118;2022-07-06T04:01:35;0.00;;;0.00;;
27644;SDS011;15054;57.152;-2.118;2022-07-06T04:04:04;0.57;;;0.00;;
27644;SDS011;15054;57.152;-2.118;2022-07-06T04:06:34;0.20;;;0.03;;
27644;SDS011;15054;57.152;-2.118;2022-07-06T04:09:03;0.00;;;0.00;;
27644;SDS011;15054;57.152;-2.118;2022-07-06T04:11:31;0.70;;;0.00;;
27644;SDS011;15054;57.152;-2.118;2022-07-06T04:13:58;0.00;;;0.00;;
27644;SDS011;15054;57.152;-2.118;2022-07-06T04:16:26;0.00;;;0.00;;
27644;SDS011;15054;57.152;-2.118;2022-07-06T04:18:53;0.68;;;0.55;;
27644;SDS011;15054;57.152;-2.118;2022-07-06T04:21:20;0.00;;;0.00;;
27644;SDS011;15054;57.152;-2.118;2022-07-06T04:23:47;0.20;;;0.00;;
27644;SDS011;15054;57.152;-2.118;2022-07-06T04:26:15;0.00;;;0.00;;
27644;SDS011;15054;57.152;-2.118;2022-07-06T04:28:42;0.10;;;0.10;;
27644;SDS011;15054;57.152;-2.118;2022-07-06T04:31:10;0.40;;;0.00;;
27644;SDS011;15054;57.152;-2.118;2022-07-06T04:33:43;0.00;;;0.00;;
27644;SDS011;15054;57.152;-2.118;2022-07-06T04:36:11;0.00;;;0.00;;
27644;SDS011;15054;57.152;-2.118;2022-07-06T04:38:41;0.00;;;0.00;;
27644;SDS011;15054;57.152;-2.118;2022-07-06T04:41:10;0.00;;;0.00;;
27644;SDS011;15054;57.152;-2.118;2022-07-06T04:43:38;0.00;;;0.00;;
27644;SDS011;15054;57.152;-2.118;2022-07-06T04:46:06;0.00;;;0.00;;
27644;SDS011;15054;57.152;-2.118;2022-07-06T04:48:39;0.00;;;0.00;;
27644;SDS011;15054;57.152;-2.118;2022-07-06T04:51:11;0.00;;;0.00;;
27644;SDS011;15054;57.152;-2.118;2022-07-06T04:53:39;0.00;;;0.00;;
27644;SDS011;15054;57.152;-2.118;2022-07-06T04:56:07;0.00;;;0.00;;
27644;SDS011;15054;57.152;-2.118;2022-07-06T04:58:37;0.00;;;0.00;;
27644;SDS011;15054;57.152;-2.118;2022-07-06T05:01:06;0.00;;;0.00;;
27644;SDS011;15054;57.152;-2.118;2022-07-06T05:03:34;0.00;;;0.00;;
27644;SDS011;15054;57.152;-2.118;2022-07-06T05:06:07;0.00;;;0.00;;
27644;SDS011;15054;57.152;-2.118;2022-07-06T05:08:35;0.00;;;0.00;;
27644;SDS011;15054;57.152;-2.118;2022-07-06T05:11:03;0.00;;;0.00;;
27644;SDS011;15054;57.152;-2.118;2022-07-06T05:13:31;0.00;;;0.00;;
27644;SDS011;15054;57.152;-2.118;2022-07-06T05:15:59;0.00;;;0.00;;
27644;SDS011;15054;57.152;-2.118;2022-07-06T05:18:26;1.98;;;0.20;;
27644;SDS011;15054;57.152;-2.118;2022-07-06T05:20:54;0.10;;;0.10;;
27644;SDS011;15054;57.152;-2.118;2022-07-06T05:23:22;0.00;;;0.00;;
27644;SDS011;15054;57.152;-2.118;2022-07-06T05:25:49;0.00;;;0.00;;
27644;SDS011;15054;57.152;-2.118;2022-07-06T05:28:17;0.00;;;0.00;;
27644;SDS011;15054;57.152;-2.118;2022-07-06T05:30:44;0.00;;;0.00;;
27644;SDS011;15054;57.152;-2.118;2022-07-06T05:33:12;0.00;;;0.00;;
27644;SDS011;15054;57.152;-2.118;2022-07-06T05:35:39;0.20;;;0.10;;
27644;SDS011;15054;57.152;-2.118;2022-07-06T05:38:20;0.90;;;0.10;;
27644;SDS011;15054;57.152;-2.118;2022-07-06T05:40:48;0.98;;;0.10;;
27644;SDS011;15054;57.152;-2.118;2022-07-06T05:43:16;0.08;;;0.08;;
27644;SDS011;15054;57.152;-2.118;2022-07-06T05:45:44;0.10;;;0.10;;
27644;SDS011;15054;57.152;-2.118;2022-07-06T05:48:13;0.05;;;0.00;;
27644;SDS011;15054;57.152;-2.118;2022-07-06T05:51:00;0.20;;;0.20;;
27644;SDS011;15054;57.152;-2.118;2022-07-06T05:53:28;0.08;;;0.08;;
27644;SDS011;15054;57.152;-2.118;2022-07-06T05:55:55;0.10;;;0.10;;
27644;SDS011;15054;57.152;-2.118;2022-07-06T05:58:24;0.32;;;0.10;;
27644;SDS011;15054;57.152;-2.118;2022-07-06T06:00:55;0.10;;;0.10;;
27644;SDS011;15054;57.152;-2.118;2022-07-06T06:03:22;0.60;;;0.10;;
27644;SDS011;15054;57.152;-2.118;2022-07-06T06:05:50;0.08;;;0.08;;
27644;SDS011;15054;57.152;-2.118;2022-07-06T06:08:19;0.10;;;0.05;;
27644;SDS011;15054;57.152;-2.118;2022-07-06T06:10:49;0.10;;;0.10;;
27644;SDS011;15054;57.152;-2.118;2022-07-06T06:13:18;0.45;;;0.00;;
27644;SDS011;15054;57.152;-2.118;2022-07-06T06:15:47;0.00;;;0.00;;
27644;SDS011;15054;57.152;-2.118;2022-07-06T06:18:15;0.10;;;0.10;;
27644;SDS011;15054;57.152;-2.118;2022-07-06T06:20:45;0.10;;;0.10;;
27644;SDS011;15054;57.152;-2.118;2022-07-06T06:23:13;0.10;;;0.10;;
27644;SDS011;15054;57.152;-2.118;2022-07-06T06:25:40;0.13;;;0.13;;
27644;SDS011;15054;57.152;-2.118;2022-07-06T06:28:08;0.10;;;0.10;;
27644;SDS011;15054;57.152;-2.118;2022-07-06T06:30:39;0.10;;;0.10;;
27644;SDS011;15054;57.152;-2.118;2022-07-06T06:33:16;0.10;;;0.10;;
27644;SDS011;15054;57.152;-2.118;2022-07-06T06:35:46;0.30;;;0.10;;
27644;SDS011;15054;57.152;-2.118;2022-07-06T06:38:15;0.10;;;0.10;;
27644;SDS011;15054;57.152;-2.118;2022-07-06T06:40:43;0.10;;;0.10;;
27644;SDS011;15054;57.152;-2.118;2022-07-06T06:43:11;0.65;;;0.20;;
27644;SDS011;15054;57.152;-2.118;2022-07-06T06:45:54;0.15;;;0.15;;
27644;SDS011;15054;57.152;-2.118;2022-07-06T06:48:22;0.43;;;0.10;;
27644;SDS011;15054;57.152;-2.118;2022-07-06T06:50:49;0.05;;;0.05;;
27644;SDS011;15054;57.152;-2.118;2022-07-06T06:53:16;1.13;;;0.10;;
27644;SDS011;15054;57.152;-2.118;2022-07-06T06:55:44;0.10;;;0.10;;
27644;SDS011;15054;57.152;-2.118;2022-07-06T06:58:13;0.03;;;0.00;;
27644;SDS011;15054;57.152;-2.118;2022-07-06T07:00:41;0.00;;;0.00;;
27644;SDS011;15054;57.152;-2.118;2022-07-06T07:03:10;0.40;;;0.10;;
27644;SDS011;15054;57.152;-2.118;2022-07-06T07:05:38;0.57;;;0.17;;
27644;SDS011;15054;57.152;-2.118;2022-07-06T07:08:05;0.00;;;0.00;;
27644;SDS011;15054;57.152;-2.118;2022-07-06T07:10:32;0.22;;;0.20;;
27644;SDS011;15054;57.152;-2.118;2022-07-06T07:12:59;0.80;;;0.20;;
27644;SDS011;15054;57.152;-2.118;2022-07-06T07:15:29;0.35;;;0.05;;
27644;SDS011;15054;57.152;-2.118;2022-07-06T07:17:58;1.50;;;0.17;;
27644;SDS011;15054;57.152;-2.118;2022-07-06T07:20:25;0.10;;;0.10;;
27644;SDS011;15054;57.152;-2.118;2022-07-06T07:22:53;0.17;;;0.08;;
27644;SDS011;15054;57.152;-2.118;2022-07-06T07:25:20;1.75;;;0.52;;
27644;SDS011;15054;57.152;-2.118;2022-07-06T07:27:47;0.13;;;0.10;;
27644;SDS011;15054;57.152;-2.118;2022-07-06T07:30:14;0.10;;;0.10;;
27644;SDS011;15054;57.152;-2.118;2022-07-06T07:32:42;0.00;;;0.00;;
27644;SDS011;15054;57.152;-2.118;2022-07-06T07:35:09;0.10;;;0.10;;
27644;SDS011;15054;57.152;-2.118;2022-07-06T07:37:37;0.45;;;0.10;;
27644;SDS011;15054;57.152;-2.118;2022-07-06T07:40:05;0.52;;;0.10;;
27644;SDS011;15054;57.152;-2.118;2022-07-06T07:42:32;4.65;;;0.20;;
27644;SDS011;15054;57.152;-2.118;2022-07-06T07:45:00;0.10;;;0.10;;
27644;SDS011;15054;57.152;-2.118;2022-07-06T07:47:27;0.70;;;0.10;;
27644;SDS011;15054;57.152;-2.118;2022-07-06T07:49:54;0.47;;;0.20;;
27644;SDS011;15054;57.152;-2.118;2022-07-06T07:52:22;2.45;;;0.20;;
27644;SDS011;15054;57.152;-2.118;2022-07-06T07:54:49;0.40;;;0.10;;
27644;SDS011;15054;57.152;-2.118;2022-07-06T07:57:33;0.10;;;0.10;;
27644;SDS011;15054;57.152;-2.118;2022-07-06T08:00:00;0.10;;;0.00;;
27644;SDS011;15054;57.152;-2.118;2022-07-06T08:02:36;0.47;;;0.38;;
27644;SDS011;15054;57.152;-2.118;2022-07-06T08:05:05;1.30;;;0.30;;
27644;SDS011;15054;57.152;-2.118;2022-07-06T08:07:33;1.08;;;0.15;;
27644;SDS011;15054;57.152;-2.118;2022-07-06T08:10:00;0.40;;;0.10;;
27644;SDS011;15054;57.152;-2.118;2022-07-06T08:12:27;0.08;;;0.08;;
27644;SDS011;15054;57.152;-2.118;2022-07-06T08:14:54;1.65;;;0.10;;
27644;SDS011;15054;57.152;-2.118;2022-07-06T08:17:22;0.10;;;0.10;;
27644;SDS011;15054;57.152;-2.118;2022-07-06T08:19:49;0.38;;;0.30;;
27644;SDS011;15054;57.152;-2.118;2022-07-06T08:22:18;0.10;;;0.10;;
27644;SDS011;15054;57.152;-2.118;2022-07-06T08:24:45;1.10;;;0.20;;
27644;SDS011;15054;57.152;-2.118;2022-07-06T08:27:12;0.15;;;0.15;;
27644;SDS011;15054;57.152;-2.118;2022-07-06T08:29:40;0.10;;;0.10;;
27644;SDS011;15054;57.152;-2.118;2022-07-06T08:32:10;0.10;;;0.10;;
27644;SDS011;15054;57.152;-2.118;2022-07-06T08:34:51;0.00;;;0.00;;
27644;SDS011;15054;57.152;-2.118;2022-07-06T08:37:19;0.05;;;0.00;;
27644;SDS011;15054;57.152;-2.118;2022-07-06T08:39:46;0.30;;;0.10;;
27644;SDS011;15054;57.152;-2.118;2022-07-06T08:42:14;0.20;;;0.10;;
27644;SDS011;15054;57.152;-2.118;2022-07-06T08:44:43;0.30;;;0.10;;
27644;SDS011;15054;57.152;-2.118;2022-07-06T08:47:10;0.10;;;0.10;;
27644;SDS011;15054;57.152;-2.118;2022-07-06T08:49:42;0.63;;;0.20;;
27644;SDS011;15054;57.152;-2.118;2022-07-06T08:52:11;0.25;;;0.25;;
27644;SDS011;15054;57.152;-2.118;2022-07-06T08:54:38;0.30;;;0.20;;
27644;SDS011;15054;57.152;-2.118;2022-07-06T08:57:07;0.17;;;0.10;;
27644;SDS011;15054;57.152;-2.118;2022-07-06T08:59:34;0.63;;;0.10;;
27644;SDS011;15054;57.152;-2.118;2022-07-06T09:02:02;1.23;;;0.15;;
27644;SDS011;15054;57.152;-2.118;2022-07-06T09:04:32;0.35;;;0.20;;
27644;SDS011;15054;57.152;-2.118;2022-07-06T09:07:02;0.40;;;0.10;;
27644;SDS011;15054;57.152;-2.118;2022-07-06T09:09:29;0.10;;;0.10;;
27644;SDS011;15054;57.152;-2.118;2022-07-06T09:11:58;1.50;;;0.20;;
27644;SDS011;15054;57.152;-2.118;2022-07-06T09:14:29;1.10;;;0.30;;
27644;SDS011;15054;57.152;-2.118;2022-07-06T09:17:04;0.30;;;0.25;;
27644;SDS011;15054;57.152;-2.118;2022-07-06T09:19:49;2.50;;;0.20;;
27644;SDS011;15054;57.152;-2.118;2022-07-06T09:22:27;1.25;;;0.30;;
27644;SDS011;15054;57.152;-2.118;2022-07-06T09:25:17;0.60;;;0.10;;
27644;SDS011;15054;57.152;-2.118;2022-07-06T09:27:46;0.20;;;0.20;;
27644;SDS011;15054;57.152;-2.118;2022-07-06T09:30:16;0.40;;;0.20;;
27644;SDS011;15054;57.152;-2.118;2022-07-06T09:35:36;1.00;;;0.20;;
27644;SDS011;15054;57.152;-2.118;2022-07-06T09:40:41;0.10;;;0.10;;
27644;SDS011;15054;57.152;-2.118;2022-07-06T09:45:45;0.40;;;0.20;;
27644;SDS011;15054;57.152;-2.118;2022-07-06T09:48:16;0.20;;;0.15;;
27644;SDS011;15054;57.152;-2.118;2022-07-06T09:50:46;0.40;;;0.13;;
27644;SDS011;15054;57.152;-2.118;2022-07-06T09:53:20;0.93;;;0.20;;
27644;SDS011;15054;57.152;-2.118;2022-07-06T09:55:51;0.82;;;0.10;;
27644;SDS011;15054;57.152;-2.118;2022-07-06T09:58:20;0.20;;;0.20;;
27644;SDS011;15054;57.152;-2.118;2022-07-06T10:01:09;0.10;;;0.10;;
27644;SDS011;15054;57.152;-2.118;2022-07-06T10:03:36;0.10;;;0.10;;
27644;SDS011;15054;57.152;-2.118;2022-07-06T10:06:05;0.22;;;0.22;;
27644;SDS011;15054;57.152;-2.118;2022-07-06T10:08:33;0.20;;;0.20;;
27644;SDS011;15054;57.152;-2.118;2022-07-06T10:11:02;1.05;;;0.28;;
27644;SDS011;15054;57.152;-2.118;2022-07-06T10:13:29;0.43;;;0.22;;
27644;SDS011;15054;57.152;-2.118;2022-07-06T10:16:01;0.15;;;0.10;;
27644;SDS011;15054;57.152;-2.118;2022-07-06T10:18:28;0.30;;;0.10;;
27644;SDS011;15054;57.152;-2.118;2022-07-06T10:20:56;0.20;;;0.10;;
27644;SDS011;15054;57.152;-2.118;2022-07-06T10:23:25;1.10;;;0.63;;
27644;SDS011;15054;57.152;-2.118;2022-07-06T10:25:53;0.20;;;0.20;;
27644;SDS011;15054;57.152;-2.118;2022-07-06T10:28:24;0.65;;;0.20;;
27644;SDS011;15054;57.152;-2.118;2022-07-06T10:30:53;0.17;;;0.10;;
27644;SDS011;15054;57.152;-2.118;2022-07-06T10:33:22;0.38;;;0.10;;
27644;SDS011;15054;57.152;-2.118;2022-07-06T10:35:55;0.70;;;0.10;;
27644;SDS011;15054;57.152;-2.118;2022-07-06T10:38:32;0.30;;;0.20;;
27644;SDS011;15054;57.152;-2.118;2022-07-06T10:41:07;0.10;;;0.10;;
27644;SDS011;15054;57.152;-2.118;2022-07-06T10:43:37;0.10;;;0.10;;
27644;SDS011;15054;57.152;-2.118;2022-07-06T10:46:16;0.70;;;0.20;;
27644;SDS011;15054;57.152;-2.118;2022-07-06T10:48:47;0.20;;;0.20;;
27644;SDS011;15054;57.152;-2.118;2022-07-06T10:51:24;0.43;;;0.10;;
27644;SDS011;15054;57.152;-2.118;2022-07-06T10:53:59;0.10;;;0.10;;
27644;SDS011;15054;57.152;-2.118;2022-07-06T10:56:57;0.45;;;0.20;;
27644;SDS011;15054;57.152;-2.118;2022-07-06T10:59:36;0.10;;;0.10;;
27644;SDS011;15054;57.152;-2.118;2022-07-06T11:02:16;1.92;;;0.30;;
27644;SDS011;15054;57.152;-2.118;2022-07-06T11:04:46;0.10;;;0.10;;
27644;SDS011;15054;57.152;-2.118;2022-07-06T11:07:15;0.60;;;0.20;;
27644;SDS011;15054;57.152;-2.118;2022-07-06T11:09:54;0.15;;;0.13;;
27644;SDS011;15054;57.152;-2.118;2022-07-06T11:12:22;0.10;;;0.10;;
27644;SDS011;15054;57.152;-2.118;2022-07-06T11:14:51;0.10;;;0.10;;
27644;SDS011;15054;57.152;-2.118;2022-07-06T11:17:21;0.20;;;0.10;;
27644;SDS011;15054;57.152;-2.118;2022-07-06T11:22:37;0.20;;;0.20;;
27644;SDS011;15054;57.152;-2.118;2022-07-06T11:25:05;0.20;;;0.20;;
27644;SDS011;15054;57.152;-2.118;2022-07-06T11:27:36;0.63;;;0.20;;
27644;SDS011;15054;57.152;-2.118;2022-07-06T11:30:06;0.30;;;0.30;;
27644;SDS011;15054;57.152;-2.118;2022-07-06T11:32:39;0.28;;;0.28;;
27644;SDS011;15054;57.152;-2.118;2022-07-06T11:35:08;0.30;;;0.30;;
27644;SDS011;15054;57.152;-2.118;2022-07-06T11:37:35;0.43;;;0.10;;
27644;SDS011;15054;57.152;-2.118;2022-07-06T11:40:06;1.00;;;0.30;;
27644;SDS011;15054;57.152;-2.118;2022-07-06T11:42:34;0.22;;;0.22;;
27644;SDS011;15054;57.152;-2.118;2022-07-06T11:45:02;0.25;;;0.25;;
27644;SDS011;15054;57.152;-2.118;2022-07-06T11:47:30;0.28;;;0.20;;
27644;SDS011;15054;57.152;-2.118;2022-07-06T11:50:00;0.47;;;0.20;;
27644;SDS011;15054;57.152;-2.118;2022-07-06T11:52:31;0.22;;;0.22;;
27644;SDS011;15054;57.152;-2.118;2022-07-06T11:54:58;0.30;;;0.20;;
27644;SDS011;15054;57.152;-2.118;2022-07-06T11:57:29;0.52;;;0.30;;
27644;SDS011;15054;57.152;-2.118;2022-07-06T12:00:01;0.40;;;0.20;;
27644;SDS011;15054;57.152;-2.118;2022-07-06T12:02:37;0.32;;;0.32;;
27644;SDS011;15054;57.152;-2.118;2022-07-06T12:05:05;0.57;;;0.57;;
27644;SDS011;15054;57.152;-2.118;2022-07-06T12:07:32;0.20;;;0.20;;
27644;SDS011;15054;57.152;-2.118;2022-07-06T12:10:00;0.75;;;0.10;;
27644;SDS011;15054;57.152;-2.118;2022-07-06T12:12:27;2.28;;;0.32;;
27644;SDS011;15054;57.152;-2.118;2022-07-06T12:14:54;0.30;;;0.30;;
27644;SDS011;15054;57.152;-2.118;2022-07-06T12:17:22;0.30;;;0.30;;
27644;SDS011;15054;57.152;-2.118;2022-07-06T12:19:53;2.17;;;0.30;;
27644;SDS011;15054;57.152;-2.118;2022-07-06T12:22:25;0.20;;;0.20;;
27644;SDS011;15054;57.152;-2.118;2022-07-06T12:24:59;0.40;;;0.15;;
27644;SDS011;15054;57.152;-2.118;2022-07-06T12:27:33;0.30;;;0.30;;
27644;SDS011;15054;57.152;-2.118;2022-07-06T12:30:10;0.20;;;0.20;;
27644;SDS011;15054;57.152;-2.118;2022-07-06T12:32:41;0.30;;;0.30;;
27644;SDS011;15054;57.152;-2.118;2022-07-06T12:35:11;0.52;;;0.35;;
27644;SDS011;15054;57.152;-2.118;2022-07-06T12:37:54;0.85;;;0.52;;
27644;SDS011;15054;57.152;-2.118;2022-07-06T12:40:26;0.38;;;0.20;;
27644;SDS011;15054;57.152;-2.118;2022-07-06T12:42:55;0.47;;;0.30;;
27644;SDS011;15054;57.152;-2.118;2022-07-06T12:48:01;0.35;;;0.30;;
27644;SDS011;15054;57.152;-2.118;2022-07-06T12:50:40;0.95;;;0.20;;
27644;SDS011;15054;57.152;-2.118;2022-07-06T12:56:16;0.95;;;0.20;;
27644;SDS011;15054;57.152;-2.118;2022-07-06T12:58:56;0.20;;;0.20;;
27644;SDS011;15054;57.152;-2.118;2022-07-06T13:01:24;0.40;;;0.30;;
27644;SDS011;15054;57.152;-2.118;2022-07-06T13:03:56;0.20;;;0.20;;
27644;SDS011;15054;57.152;-2.118;2022-07-06T13:06:31;0.10;;;0.10;;
27644;SDS011;15054;57.152;-2.118;2022-07-06T13:08:59;0.30;;;0.30;;
27644;SDS011;15054;57.152;-2.118;2022-07-06T13:11:27;0.20;;;0.20;;
27644;SDS011;15054;57.152;-2.118;2022-07-06T13:13:54;0.68;;;0.30;;
27644;SDS011;15054;57.152;-2.118;2022-07-06T13:16:21;0.20;;;0.20;;
27644;SDS011;15054;57.152;-2.118;2022-07-06T13:18:51;0.20;;;0.20;;
27644;SDS011;15054;57.152;-2.118;2022-07-06T13:21:18;0.45;;;0.35;;
27644;SDS011;15054;57.152;-2.118;2022-07-06T13:23:46;0.20;;;0.20;;
27644;SDS011;15054;57.152;-2.118;2022-07-06T13:26:14;0.10;;;0.10;;
27644;SDS011;15054;57.152;-2.118;2022-07-06T13:28:46;0.10;;;0.10;;
27644;SDS011;15054;57.152;-2.118;2022-07-06T13:31:18;0.10;;;0.10;;
27644;SDS011;15054;57.152;-2.118;2022-07-06T13:33:50;0.03;;;0.00;;
27644;SDS011;15054;57.152;-2.118;2022-07-06T13:36:18;1.17;;;0.43;;
27644;SDS011;15054;57.152;-2.118;2022-07-06T13:38:50;0.00;;;0.00;;
27644;SDS011;15054;57.152;-2.118;2022-07-06T13:41:24;0.00;;;0.00;;
27644;SDS011;15054;57.152;-2.118;2022-07-06T13:43:53;0.00;;;0.00;;
27644;SDS011;15054;57.152;-2.118;2022-07-06T13:46:31;0.05;;;0.00;;
27644;SDS011;15054;57.152;-2.118;2022-07-06T13:49:06;0.00;;;0.00;;
27644;SDS011;15054;57.152;-2.118;2022-07-06T13:51:34;0.00;;;0.00;;
27644;SDS011;15054;57.152;-2.118;2022-07-06T13:54:01;0.00;;;0.00;;
27644;SDS011;15054;57.152;-2.118;2022-07-06T13:56:28;0.00;;;0.00;;
27644;SDS011;15054;57.152;-2.118;2022-07-06T13:58:59;0.00;;;0.00;;
27644;SDS011;15054;57.152;-2.118;2022-07-06T14:01:33;0.08;;;0.08;;
27644;SDS011;15054;57.152;-2.118;2022-07-06T14:04:00;0.30;;;0.20;;
27644;SDS011;15054;57.152;-2.118;2022-07-06T14:06:27;0.00;;;0.00;;
27644;SDS011;15054;57.152;-2.118;2022-07-06T14:08:55;0.47;;;0.25;;
27644;SDS011;15054;57.152;-2.118;2022-07-06T14:11:22;0.28;;;0.10;;
27644;SDS011;15054;57.152;-2.118;2022-07-06T14:13:49;0.82;;;0.10;;
27644;SDS011;15054;57.152;-2.118;2022-07-06T14:16:18;0.00;;;0.00;;
27644;SDS011;15054;57.152;-2.118;2022-07-06T14:18:45;0.10;;;0.10;;
27644;SDS011;15054;57.152;-2.118;2022-07-06T14:21:14;3.80;;;0.10;;
27644;SDS011;15054;57.152;-2.118;2022-07-06T14:23:42;0.00;;;0.00;;
27644;SDS011;15054;57.152;-2.118;2022-07-06T14:26:09;0.05;;;0.05;;
27644;SDS011;15054;57.152;-2.118;2022-07-06T14:28:36;0.00;;;0.00;;
27644;SDS011;15054;57.152;-2.118;2022-07-06T14:31:04;0.10;;;0.10;;
27644;SDS011;15054;57.152;-2.118;2022-07-06T14:33:32;0.10;;;0.08;;
27644;SDS011;15054;57.152;-2.118;2022-07-06T14:35:59;0.03;;;0.03;;
27644;SDS011;15054;57.152;-2.118;2022-07-06T14:38:27;0.00;;;0.00;;
27644;SDS011;15054;57.152;-2.118;2022-07-06T14:40:55;0.10;;;0.10;;
27644;SDS011;15054;57.152;-2.118;2022-07-06T14:43:22;0.25;;;0.20;;
27644;SDS011;15054;57.152;-2.118;2022-07-06T14:45:49;0.13;;;0.00;;
27644;SDS011;15054;57.152;-2.118;2022-07-06T14:48:17;1.15;;;0.30;;
27644;SDS011;15054;57.152;-2.118;2022-07-06T14:50:44;0.00;;;0.00;;
27644;SDS011;15054;57.152;-2.118;2022-07-06T14:53:11;0.00;;;0.00;;
27644;SDS011;15054;57.152;-2.118;2022-07-06T14:55:39;0.10;;;0.10;;
27644;SDS011;15054;57.152;-2.118;2022-07-06T14:58:06;0.20;;;0.20;;
27644;SDS011;15054;57.152;-2.118;2022-07-06T15:00:40;0.10;;;0.10;;
27644;SDS011;15054;57.152;-2.118;2022-07-06T15:03:11;0.20;;;0.05;;